createdAt,value
2022-09-25T00:01:06.690Z,13.60
2022-09-25T00:03:34.639Z,13.60
2022-09-25T00:06:03.658Z,13.60
2022-09-25T00:08:31.979Z,13.60
2022-09-25T00:11:00.463Z,13.60
2022-09-25T00:13:29.714Z,13.60
2022-09-25T00:15:59.956Z,13.60
2022-09-25T00:18:45.303Z,13.60
2022-09-25T00:21:15.746Z,13.60
2022-09-25T00:23:44.976Z,13.60
2022-09-25T00:26:13.692Z,13.60
2022-09-25T00:28:43.903Z,13.60
2022-09-25T00:31:15.099Z,13.60
2022-09-25T00:33:43.031Z,13.60
2022-09-25T00:36:12.164Z,13.60
2022-09-25T00:38:40.084Z,13.60
2022-09-25T00:41:08.806Z,13.60
2022-09-25T00:43:39.876Z,13.60
2022-09-25T00:46:14.119Z,13.60
2022-09-25T00:48:49.643Z,13.50
2022-09-25T00:51:21.191Z,13.50
2022-09-25T00:53:50.202Z,13.50
2022-09-25T00:56:18.107Z,13.50
2022-09-25T00:58:46.101Z,13.60
2022-09-25T01:01:15.369Z,13.50
2022-09-25T01:03:46.336Z,13.50
2022-09-25T01:06:15.973Z,13.50
2022-09-25T01:08:44.359Z,13.50
2022-09-25T01:11:12.585Z,13.50
2022-09-25T01:13:41.250Z,13.50
2022-09-25T01:16:14.680Z,13.50
2022-09-25T01:18:58.533Z,13.50
2022-09-25T01:21:38.426Z,13.50
2022-09-25T01:24:33.883Z,13.50
2022-09-25T01:27:26.125Z,13.50
2022-09-25T01:30:02.948Z,13.50
2022-09-25T01:32:37.319Z,13.50
2022-09-25T01:35:13.130Z,13.50
2022-09-25T01:37:47.209Z,13.50
2022-09-25T01:40:22.203Z,13.50
2022-09-25T01:42:54.877Z,13.50
2022-09-25T01:45:30.678Z,13.50
2022-09-25T01:48:00.826Z,13.50
2022-09-25T01:50:33.919Z,13.50
2022-09-25T01:53:08.213Z,13.50
2022-09-25T01:55:40.963Z,13.50
2022-09-25T01:58:12.456Z,13.50
2022-09-25T02:00:45.444Z,13.50
2022-09-25T02:03:18.293Z,13.40
2022-09-25T02:05:49.889Z,13.50
2022-09-25T02:08:22.263Z,13.40
2022-09-25T02:10:56.282Z,13.40
2022-09-25T02:13:29.687Z,13.40
2022-09-25T02:16:04.595Z,13.30
2022-09-25T02:18:50.144Z,13.30
2022-09-25T02:21:22.900Z,13.30
2022-09-25T02:23:55.945Z,13.20
2022-09-25T02:26:28.867Z,13.20
2022-09-25T02:28:57.538Z,13.20
2022-09-25T02:31:31.019Z,13.20
2022-09-25T02:33:59.214Z,13.20
2022-09-25T02:36:27.050Z,13.10
2022-09-25T02:38:57.001Z,13.10
2022-09-25T02:41:40.237Z,13.10
2022-09-25T02:44:17.519Z,13.20
2022-09-25T02:46:55.592Z,13.20
2022-09-25T02:49:30.617Z,13.20
2022-09-25T02:52:07.736Z,13.20
2022-09-25T02:54:44.190Z,13.20
2022-09-25T02:57:16.601Z,13.10
2022-09-25T02:59:50.125Z,13.10
2022-09-25T03:02:21.309Z,13.20
2022-09-25T03:04:51.018Z,13.20
2022-09-25T03:07:20.336Z,13.10
2022-09-25T03:09:50.602Z,13.10
2022-09-25T03:12:18.418Z,13.10
2022-09-25T03:14:46.733Z,13.10
2022-09-25T03:17:17.572Z,13.10
2022-09-25T03:19:46.752Z,13.20
2022-09-25T03:22:14.548Z,13.20
2022-09-25T03:24:42.844Z,13.20
2022-09-25T03:27:10.651Z,13.10
2022-09-25T03:29:38.463Z,13.10
2022-09-25T03:32:06.309Z,13.10
2022-09-25T03:34:34.133Z,13.10
2022-09-25T03:37:03.284Z,13.10
2022-09-25T03:39:31.172Z,13.00
2022-09-25T03:41:59.011Z,13.00
2022-09-25T03:44:26.832Z,13.00
2022-09-25T03:46:54.642Z,13.00
2022-09-25T03:49:22.562Z,13.00
2022-09-25T03:51:50.414Z,13.00
2022-09-25T03:54:19.583Z,13.00
2022-09-25T03:56:47.408Z,13.00
2022-09-25T03:59:16.780Z,13.00
2022-09-25T04:01:46.151Z,13.00
2022-09-25T04:04:14.336Z,13.00
2022-09-25T04:06:42.194Z,13.00
2022-09-25T04:09:10.134Z,13.00
2022-09-25T04:11:39.310Z,13.00
2022-09-25T04:14:07.257Z,13.00
2022-09-25T04:16:35.177Z,13.00
2022-09-25T04:19:02.986Z,13.00
2022-09-25T04:21:30.793Z,13.00
2022-09-25T04:24:16.336Z,13.00
2022-09-25T04:26:46.666Z,13.00
2022-09-25T04:29:15.263Z,13.00
2022-09-25T04:31:43.100Z,13.00
2022-09-25T04:34:10.119Z,13.00
2022-09-25T04:36:37.992Z,13.00
2022-09-25T04:39:05.954Z,13.00
2022-09-25T04:41:34.959Z,13.00
2022-09-25T04:44:07.051Z,13.00
2022-09-25T04:46:34.945Z,13.00
2022-09-25T04:49:03.007Z,13.00
2022-09-25T04:51:31.037Z,13.00
2022-09-25T04:53:59.776Z,13.00
2022-09-25T04:56:27.650Z,13.00
2022-09-25T04:58:55.488Z,13.00
2022-09-25T05:01:24.802Z,13.00
2022-09-25T05:03:53.897Z,13.00
2022-09-25T05:06:22.535Z,13.00
2022-09-25T05:08:50.691Z,13.00
2022-09-25T05:11:18.580Z,13.00
2022-09-25T05:13:49.900Z,13.00
2022-09-25T05:16:17.822Z,13.00
2022-09-25T05:18:47.323Z,12.90
2022-09-25T05:21:15.232Z,13.00
2022-09-25T05:23:43.120Z,13.00
2022-09-25T05:26:11.079Z,13.00
2022-09-25T05:28:39.038Z,12.90
2022-09-25T05:31:07.360Z,13.00
2022-09-25T05:33:36.311Z,13.00
2022-09-25T05:36:06.817Z,13.00
2022-09-25T05:38:36.175Z,13.00
2022-09-25T05:41:05.083Z,13.00
2022-09-25T05:43:33.071Z,13.00
2022-09-25T05:46:01.124Z,13.00
2022-09-25T05:48:28.993Z,13.00
2022-09-25T05:50:57.952Z,13.00
2022-09-25T05:53:27.817Z,13.10
2022-09-25T05:55:56.932Z,13.10
2022-09-25T05:58:25.621Z,13.10
2022-09-25T06:00:54.009Z,13.10
2022-09-25T06:03:22.532Z,13.10
2022-09-25T06:05:50.390Z,13.10
2022-09-25T06:08:18.679Z,13.10
2022-09-25T06:10:53.833Z,13.00
2022-09-25T06:13:22.672Z,13.10
2022-09-25T06:15:52.341Z,13.10
2022-09-25T06:18:21.543Z,13.10
2022-09-25T06:20:50.232Z,13.10
2022-09-25T06:23:19.288Z,13.10
2022-09-25T06:25:48.448Z,13.10
2022-09-25T06:28:16.465Z,13.20
2022-09-25T06:30:45.347Z,13.20
2022-09-25T06:33:15.114Z,13.20
2022-09-25T06:35:44.711Z,13.20
2022-09-25T06:38:13.247Z,13.30
2022-09-25T06:40:41.986Z,13.30
2022-09-25T06:43:13.561Z,13.30
2022-09-25T06:45:42.137Z,13.40
2022-09-25T06:48:11.611Z,13.40
2022-09-25T06:50:42.425Z,13.40
2022-09-25T06:53:11.246Z,13.40
2022-09-25T06:55:39.761Z,13.40
2022-09-25T06:58:09.350Z,13.40
2022-09-25T07:00:39.475Z,13.40
2022-09-25T07:03:25.062Z,13.40
2022-09-25T07:05:52.910Z,13.40
2022-09-25T07:08:21.828Z,13.50
2022-09-25T07:10:50.173Z,13.50
2022-09-25T07:13:18.593Z,13.60
2022-09-25T07:15:53.674Z,13.60
2022-09-25T07:18:21.967Z,13.60
2022-09-25T07:20:50.064Z,13.60
2022-09-25T07:23:19.101Z,13.60
2022-09-25T07:25:47.911Z,13.60
2022-09-25T07:28:18.860Z,13.70
2022-09-25T07:30:47.832Z,13.60
2022-09-25T07:33:17.359Z,13.70
2022-09-25T07:35:45.159Z,13.70
2022-09-25T07:38:13.000Z,13.60
2022-09-25T07:40:41.863Z,13.70
2022-09-25T07:43:09.751Z,13.70
2022-09-25T07:45:38.677Z,13.70
2022-09-25T07:48:07.198Z,13.70
2022-09-25T07:50:36.597Z,13.70
2022-09-25T07:53:04.391Z,13.70
2022-09-25T07:55:32.227Z,13.70
2022-09-25T07:58:00.034Z,13.70
2022-09-25T08:00:28.063Z,13.70
2022-09-25T08:02:59.973Z,13.80
2022-09-25T08:05:28.769Z,13.80
2022-09-25T08:07:57.931Z,13.80
2022-09-25T08:10:25.836Z,13.80
2022-09-25T08:12:54.129Z,13.80
2022-09-25T08:15:22.052Z,13.80
2022-09-25T08:17:50.124Z,13.90
2022-09-25T08:20:18.115Z,13.90
2022-09-25T08:22:46.011Z,13.90
2022-09-25T08:25:15.763Z,13.90
2022-09-25T08:27:43.541Z,13.90
2022-09-25T08:30:13.708Z,13.90
2022-09-25T08:32:41.807Z,13.90
2022-09-25T08:35:10.408Z,13.90
2022-09-25T08:37:42.579Z,14.00
2022-09-25T08:40:19.608Z,14.00
2022-09-25T08:42:50.683Z,14.10
2022-09-25T08:45:45.048Z,14.10
2022-09-25T08:48:40.194Z,14.10
2022-09-25T08:51:09.028Z,14.30
2022-09-25T08:53:39.147Z,14.30
2022-09-25T08:56:18.511Z,14.40
2022-09-25T08:58:52.394Z,14.40
2022-09-25T09:01:23.526Z,14.40
2022-09-25T09:03:55.682Z,14.50
2022-09-25T09:06:26.433Z,14.50
2022-09-25T09:08:58.777Z,14.60
2022-09-25T09:11:34.360Z,14.60
2022-09-25T09:14:05.753Z,14.70
2022-09-25T09:16:42.180Z,14.80
2022-09-25T09:19:12.221Z,14.90
2022-09-25T09:21:46.005Z,14.90
2022-09-25T09:24:17.466Z,15.00
2022-09-25T09:27:03.733Z,15.00
2022-09-25T09:30:05.809Z,15.00
2022-09-25T09:32:56.699Z,14.90
2022-09-25T09:35:34.226Z,14.70
2022-09-25T09:38:11.787Z,14.70
2022-09-25T09:41:14.705Z,14.50
2022-09-25T09:43:57.980Z,14.50
2022-09-25T09:46:34.413Z,14.50
2022-09-25T09:49:11.034Z,14.40
2022-09-25T09:51:43.307Z,14.40
2022-09-25T09:54:16.807Z,14.40
2022-09-25T09:56:49.334Z,14.30
2022-09-25T09:59:21.242Z,14.40
2022-09-25T10:02:00.052Z,14.40
2022-09-25T10:04:32.598Z,14.40
2022-09-25T10:07:05.565Z,14.50
2022-09-25T10:09:33.487Z,14.60
2022-09-25T10:12:07.404Z,14.80
2022-09-25T10:14:42.300Z,14.90
2022-09-25T10:17:12.149Z,15.10
2022-09-25T10:19:48.587Z,15.30
2022-09-25T10:22:18.096Z,15.60
2022-09-25T10:24:55.387Z,15.80
2022-09-25T10:27:28.831Z,15.90
2022-09-25T10:30:23.550Z,16.00
2022-09-25T10:33:01.189Z,16.10
2022-09-25T10:35:31.440Z,16.20
2022-09-25T10:38:01.877Z,16.20
2022-09-25T10:40:33.353Z,16.20
2022-09-25T10:43:07.157Z,16.20
2022-09-25T10:45:40.542Z,16.30
2022-09-25T10:48:45.153Z,16.20
2022-09-25T10:51:18.310Z,16.30
2022-09-25T10:53:47.378Z,16.30
2022-09-25T10:56:18.881Z,16.20
2022-09-25T10:58:51.246Z,16.10
2022-09-25T11:01:20.632Z,15.90
2022-09-25T11:03:53.362Z,15.70
2022-09-25T11:06:25.792Z,15.60
2022-09-25T11:09:07.749Z,15.50
2022-09-25T11:11:37.621Z,15.40
2022-09-25T11:14:08.088Z,15.30
2022-09-25T11:16:49.240Z,15.30
2022-09-25T11:19:23.122Z,15.40
2022-09-25T11:21:59.878Z,15.40
2022-09-25T11:24:40.445Z,15.50
2022-09-25T11:27:13.920Z,15.60
2022-09-25T11:29:50.465Z,15.70
2022-09-25T11:32:27.041Z,15.80
2022-09-25T11:35:20.263Z,15.80
2022-09-25T11:37:57.961Z,15.80
2022-09-25T11:40:56.646Z,15.70
2022-09-25T11:43:36.335Z,15.70
2022-09-25T11:46:13.224Z,15.60
2022-09-25T11:48:54.422Z,15.50
2022-09-25T11:51:35.916Z,15.50
2022-09-25T11:54:32.782Z,15.40
2022-09-25T11:57:07.578Z,15.30
2022-09-25T11:59:47.685Z,15.40
2022-09-25T12:02:24.345Z,15.40
2022-09-25T12:05:07.424Z,15.50
2022-09-25T12:07:55.225Z,15.60
2022-09-25T12:10:43.967Z,15.70
2022-09-25T12:13:22.175Z,15.80
2022-09-25T12:16:00.717Z,16.00
2022-09-25T12:18:50.526Z,16.00
2022-09-25T12:21:24.811Z,16.10
2022-09-25T12:23:59.270Z,16.10
2022-09-25T12:26:37.163Z,16.10
2022-09-25T12:29:19.377Z,16.10
2022-09-25T12:31:58.092Z,16.00
2022-09-25T12:34:38.112Z,16.00
2022-09-25T12:37:23.055Z,16.00
2022-09-25T12:39:59.358Z,15.90
2022-09-25T12:42:39.796Z,15.90
2022-09-25T12:45:17.879Z,15.90
2022-09-25T12:47:54.657Z,15.90
2022-09-25T12:50:29.210Z,15.90
2022-09-25T12:53:04.288Z,16.00
2022-09-25T12:55:38.209Z,16.10
2022-09-25T12:58:18.131Z,16.10
2022-09-25T13:00:50.510Z,16.10
2022-09-25T13:03:27.502Z,16.20
2022-09-25T13:06:09.918Z,16.20
2022-09-25T13:08:44.461Z,16.20
2022-09-25T13:11:17.360Z,16.20
2022-09-25T13:13:49.352Z,16.10
2022-09-25T13:16:17.776Z,16.00
2022-09-25T13:18:49.327Z,16.00
2022-09-25T13:21:26.922Z,16.00
2022-09-25T13:23:57.743Z,16.00
2022-09-25T13:26:27.696Z,16.00
2022-09-25T13:28:58.775Z,15.90
2022-09-25T13:31:28.528Z,16.00
2022-09-25T13:34:04.599Z,15.90
2022-09-25T13:36:36.886Z,15.80
2022-09-25T13:39:25.527Z,15.70
2022-09-25T13:41:57.734Z,15.60
2022-09-25T13:45:07.566Z,15.50
2022-09-25T13:48:06.964Z,15.30
2022-09-25T13:50:46.272Z,15.20
2022-09-25T13:53:21.169Z,15.10
2022-09-25T13:56:27.729Z,14.90
2022-09-25T13:59:46.855Z,14.80
2022-09-25T14:02:42.484Z,14.80
2022-09-25T14:05:16.595Z,14.80
2022-09-25T14:07:45.364Z,14.70
2022-09-25T14:10:13.662Z,14.60
2022-09-25T14:12:46.016Z,14.50
2022-09-25T14:15:25.102Z,14.40
2022-09-25T14:17:55.556Z,14.30
2022-09-25T14:20:36.406Z,14.20
2022-09-25T14:23:08.134Z,14.20
2022-09-25T14:25:38.917Z,14.20
2022-09-25T14:28:19.833Z,14.20
2022-09-25T14:31:16.413Z,14.30
2022-09-25T14:33:57.505Z,14.30
2022-09-25T14:36:37.077Z,14.40
2022-09-25T14:39:27.007Z,14.50
2022-09-25T14:42:33.539Z,14.50
2022-09-25T14:45:17.457Z,14.60
2022-09-25T14:47:48.584Z,14.60
2022-09-25T14:50:23.314Z,14.60
2022-09-25T14:52:54.987Z,14.60
2022-09-25T14:55:24.486Z,14.60
2022-09-25T14:57:52.829Z,14.70
2022-09-25T15:00:24.528Z,14.70
2022-09-25T15:02:55.659Z,14.80
2022-09-25T15:05:31.462Z,14.80
2022-09-25T15:08:02.018Z,14.90
2022-09-25T15:10:32.657Z,14.90
2022-09-25T15:13:09.336Z,14.90
2022-09-25T15:15:40.588Z,14.90
2022-09-25T15:18:13.388Z,14.90
2022-09-25T15:20:47.251Z,14.90
2022-09-25T15:23:18.374Z,14.90
2022-09-25T15:25:50.597Z,14.90
2022-09-25T15:28:20.608Z,14.80
2022-09-25T15:30:57.629Z,14.80
2022-09-25T15:33:28.481Z,14.70
2022-09-25T15:35:57.816Z,14.60
2022-09-25T15:38:32.911Z,14.60
2022-09-25T15:41:01.378Z,14.60
2022-09-25T15:43:29.971Z,14.60
2022-09-25T15:46:19.863Z,14.60
2022-09-25T15:48:53.662Z,14.60
2022-09-25T15:51:24.313Z,14.60
2022-09-25T15:53:54.531Z,14.60
2022-09-25T15:56:25.507Z,14.60
2022-09-25T15:58:56.710Z,14.60
2022-09-25T16:01:45.556Z,14.60
2022-09-25T16:04:38.788Z,14.60
2022-09-25T16:07:25.891Z,14.50
2022-09-25T16:09:55.880Z,14.50
2022-09-25T16:12:29.670Z,14.50
2022-09-25T16:14:59.504Z,14.40
2022-09-25T16:17:33.583Z,14.40
2022-09-25T16:20:08.047Z,14.40
2022-09-25T16:22:45.628Z,14.40
2022-09-25T16:25:22.028Z,14.30
2022-09-25T16:27:50.234Z,14.40
2022-09-25T16:30:20.609Z,14.30
2022-09-25T16:32:53.099Z,14.30
2022-09-25T16:35:40.642Z,14.30
2022-09-25T16:38:27.752Z,14.30
2022-09-25T16:41:05.142Z,14.30
2022-09-25T16:43:36.007Z,14.30
2022-09-25T16:46:13.402Z,14.30
2022-09-25T16:48:43.085Z,14.30
2022-09-25T16:51:22.466Z,14.30
2022-09-25T16:53:51.416Z,14.30
2022-09-25T16:56:22.509Z,14.30
2022-09-25T16:58:50.664Z,14.30
2022-09-25T17:01:19.154Z,14.30
2022-09-25T17:03:52.439Z,14.30
2022-09-25T17:06:21.969Z,14.20
2022-09-25T17:08:51.074Z,14.20
2022-09-25T17:11:21.625Z,14.20
2022-09-25T17:13:51.535Z,14.10
2022-09-25T17:16:19.509Z,14.10
2022-09-25T17:18:48.817Z,14.10
2022-09-25T17:21:17.422Z,14.10
2022-09-25T17:23:45.332Z,14.10
2022-09-25T17:26:18.383Z,14.00
2022-09-25T17:28:46.309Z,14.00
2022-09-25T17:31:16.061Z,14.00
2022-09-25T17:33:43.920Z,13.90
2022-09-25T17:36:13.909Z,13.90
2022-09-25T17:38:41.692Z,13.90
2022-09-25T17:41:31.179Z,13.90
2022-09-25T17:43:59.577Z,13.90
2022-09-25T17:46:27.644Z,13.80
2022-09-25T17:48:55.762Z,13.80
2022-09-25T17:51:26.664Z,13.80
2022-09-25T17:53:55.953Z,13.80
2022-09-25T17:56:25.253Z,13.80
2022-09-25T17:58:56.325Z,13.70
2022-09-25T18:01:26.946Z,13.70
2022-09-25T18:03:56.774Z,13.70
2022-09-25T18:06:27.281Z,13.70
2022-09-25T18:08:55.592Z,13.70
2022-09-25T18:11:24.226Z,13.70
2022-09-25T18:13:54.045Z,13.60
2022-09-25T18:16:26.350Z,13.60
2022-09-25T18:19:11.624Z,13.60
2022-09-25T18:21:58.162Z,13.60
2022-09-25T18:24:26.059Z,13.60
2022-09-25T18:26:56.476Z,13.60
2022-09-25T18:29:24.665Z,13.50
2022-09-25T18:31:53.398Z,13.60
2022-09-25T18:34:22.694Z,13.50
2022-09-25T18:36:52.538Z,13.50
2022-09-25T18:39:20.800Z,13.50
2022-09-25T18:41:49.280Z,13.50
2022-09-25T18:44:17.849Z,13.50
2022-09-25T18:46:45.895Z,13.50
2022-09-25T18:49:13.920Z,13.50
2022-09-25T18:51:41.864Z,13.50
2022-09-25T18:54:13.528Z,13.40
2022-09-25T18:56:41.709Z,13.40
2022-09-25T18:59:09.564Z,13.40
2022-09-25T19:01:38.808Z,13.40
2022-09-25T19:04:07.971Z,13.40
2022-09-25T19:06:35.804Z,13.40
2022-09-25T19:09:04.836Z,13.40
2022-09-25T19:11:34.174Z,13.40
2022-09-25T19:14:04.550Z,13.40
2022-09-25T19:16:38.145Z,13.30
2022-09-25T19:19:07.496Z,13.30
2022-09-25T19:21:35.744Z,13.30
2022-09-25T19:24:04.542Z,13.30
2022-09-25T19:26:33.789Z,13.30
2022-09-25T19:29:02.059Z,13.30
2022-09-25T19:31:31.514Z,13.30
2022-09-25T19:34:00.886Z,13.20
2022-09-25T19:36:31.200Z,13.20
2022-09-25T19:38:59.996Z,13.20
2022-09-25T19:41:29.284Z,13.20
2022-09-25T19:44:00.505Z,13.20
2022-09-25T19:46:31.779Z,13.10
2022-09-25T19:49:00.952Z,13.10
2022-09-25T19:51:28.874Z,13.00
2022-09-25T19:53:56.735Z,13.00
2022-09-25T19:56:24.621Z,13.00
2022-09-25T19:58:52.468Z,12.90
2022-09-25T20:01:24.159Z,12.90
2022-09-25T20:03:52.318Z,12.90
2022-09-25T20:06:20.179Z,12.80
2022-09-25T20:08:48.391Z,12.70
2022-09-25T20:11:18.550Z,12.60
2022-09-25T20:13:48.253Z,12.60
2022-09-25T20:16:18.115Z,12.60
2022-09-25T20:18:50.718Z,12.60
2022-09-25T20:21:21.282Z,12.60
2022-09-25T20:23:52.012Z,12.60
2022-09-25T20:26:20.591Z,12.60
2022-09-25T20:28:53.556Z,12.60
2022-09-25T20:31:21.755Z,12.60
2022-09-25T20:33:51.131Z,12.60
2022-09-25T20:36:19.814Z,12.70
2022-09-25T20:38:51.015Z,12.60
2022-09-25T20:41:19.731Z,12.60
2022-09-25T20:43:50.694Z,12.60
2022-09-25T20:46:20.298Z,12.60
2022-09-25T20:48:51.864Z,12.60
2022-09-25T20:51:21.458Z,12.60
2022-09-25T20:53:51.570Z,12.60
2022-09-25T20:56:20.318Z,12.60
2022-09-25T20:58:53.127Z,12.60
2022-09-25T21:01:23.716Z,12.60
2022-09-25T21:03:54.192Z,12.60
2022-09-25T21:06:24.124Z,12.60
2022-09-25T21:08:53.551Z,12.60
2022-09-25T21:11:21.810Z,12.60
2022-09-25T21:13:52.211Z,12.60
2022-09-25T21:16:21.987Z,12.60
2022-09-25T21:18:55.171Z,12.60
2022-09-25T21:21:24.280Z,12.50
2022-09-25T21:23:53.878Z,12.50
2022-09-25T21:26:23.369Z,12.40
2022-09-25T21:28:53.831Z,12.40
2022-09-25T21:31:23.701Z,12.30
2022-09-25T21:33:53.869Z,12.30
2022-09-25T21:36:22.587Z,12.30
2022-09-25T21:38:50.746Z,12.20
2022-09-25T21:41:23.977Z,12.10
2022-09-25T21:43:54.614Z,12.10
2022-09-25T21:46:23.394Z,12.10
2022-09-25T21:48:54.252Z,12.00
2022-09-25T21:51:24.283Z,11.90
2022-09-25T21:53:53.641Z,11.80
2022-09-25T21:56:23.686Z,11.80
2022-09-25T21:58:53.322Z,11.70
2022-09-25T22:01:24.796Z,11.70
2022-09-25T22:03:56.926Z,11.70
2022-09-25T22:06:27.130Z,11.60
2022-09-25T22:08:59.961Z,11.60
2022-09-25T22:11:29.166Z,11.50
2022-09-25T22:14:00.136Z,11.50
2022-09-25T22:16:30.896Z,11.50
2022-09-25T22:19:01.741Z,11.30
2022-09-25T22:21:31.376Z,11.20
2022-09-25T22:24:00.355Z,11.20
2022-09-25T22:26:29.500Z,11.10
2022-09-25T22:28:57.778Z,11.00
2022-09-25T22:31:27.533Z,11.00
2022-09-25T22:33:57.391Z,10.90
2022-09-25T22:36:27.228Z,10.80
2022-09-25T22:38:55.450Z,10.80
2022-09-25T22:41:23.759Z,10.70
2022-09-25T22:43:53.068Z,10.60
2022-09-25T22:46:22.256Z,10.50
2022-09-25T22:48:50.507Z,10.50
2022-09-25T22:51:20.429Z,10.50
2022-09-25T22:53:50.529Z,10.50
2022-09-25T22:56:20.705Z,10.40
2022-09-25T22:58:50.227Z,10.30
2022-09-25T23:01:21.173Z,10.30
2022-09-25T23:03:49.151Z,10.20
2022-09-25T23:06:17.234Z,10.10
2022-09-25T23:08:51.021Z,10.10
2022-09-25T23:11:21.714Z,10.10
2022-09-25T23:13:50.609Z,10.10
2022-09-25T23:16:19.144Z,10.00
2022-09-25T23:18:47.065Z,10.00
2022-09-25T23:21:15.312Z,10.00
2022-09-25T23:23:43.118Z,10.00
2022-09-25T23:26:11.270Z,9.90
2022-09-25T23:28:41.545Z,9.90
2022-09-25T23:31:11.360Z,9.90
2022-09-25T23:33:40.328Z,9.90
2022-09-25T23:36:11.290Z,9.80
2022-09-25T23:38:39.660Z,9.80
2022-09-25T23:41:15.979Z,9.70
2022-09-25T23:43:46.681Z,9.70
2022-09-25T23:46:16.327Z,9.60
2022-09-25T23:48:45.097Z,9.50
2022-09-25T23:51:14.180Z,9.40
2022-09-25T23:53:42.562Z,9.40
2022-09-25T23:56:12.020Z,9.40
2022-09-25T23:58:40.183Z,9.40
